createdAt,value
2019-06-07T00:00:52.446Z,13.60
2019-06-07T00:03:27.621Z,13.60
2019-06-07T00:05:46.801Z,13.70
2019-06-07T00:08:21.329Z,13.70
2019-06-07T00:10:41.488Z,13.70
2019-06-07T00:13:09.298Z,13.50
2019-06-07T00:15:35.735Z,13.60
2019-06-07T00:18:02.016Z,13.60
2019-06-07T00:20:28.297Z,13.50
2019-06-07T00:22:54.460Z,13.40
2019-06-07T00:25:24.320Z,13.40
2019-06-07T00:27:49.013Z,13.40
2019-06-07T00:30:35.949Z,13.30
2019-06-07T00:32:45.731Z,13.30
2019-06-07T00:35:15.387Z,13.20
2019-06-07T00:37:41.464Z,13.30
2019-06-07T00:40:20.652Z,13.30
2019-06-07T00:42:36.522Z,13.20
2019-06-07T00:45:07.526Z,13.10
2019-06-07T00:47:33.714Z,13.10
2019-06-07T00:49:59.897Z,13.10
2019-06-07T00:54:54.152Z,13.00
2019-06-07T00:57:22.156Z,13.00
2019-06-07T00:59:48.423Z,13.00
2019-06-07T01:02:16.084Z,12.90
2019-06-07T01:04:42.714Z,12.90
2019-06-07T01:07:08.873Z,12.70
2019-06-07T01:09:35.058Z,12.60
2019-06-07T01:12:01.223Z,12.60
2019-06-07T01:14:28.754Z,12.60
2019-06-07T01:17:05.269Z,12.50
2019-06-07T01:19:26.484Z,12.40
2019-06-07T01:21:52.159Z,12.40
2019-06-07T01:24:19.911Z,12.30
2019-06-07T01:26:46.334Z,12.30
2019-06-07T01:29:12.499Z,12.20
2019-06-07T01:31:38.692Z,12.20
2019-06-07T01:34:05.853Z,12.10
2019-06-07T01:36:32.057Z,12.10
2019-06-07T01:38:58.401Z,12.20
2019-06-07T01:41:25.899Z,12.20
2019-06-07T01:43:52.669Z,12.20
2019-06-07T01:46:20.605Z,12.30
2019-06-07T01:48:56.504Z,12.30
2019-06-07T01:51:24.290Z,12.30
2019-06-07T01:53:50.968Z,12.30
2019-06-07T01:56:18.528Z,12.10
2019-06-07T01:58:45.214Z,12.00
2019-06-07T02:01:11.369Z,12.00
2019-06-07T02:03:37.554Z,12.00
2019-06-07T02:06:03.837Z,11.80
2019-06-07T02:08:34.256Z,11.80
2019-06-07T02:10:58.117Z,11.70
2019-06-07T02:13:27.407Z,11.70
2019-06-07T02:15:52.473Z,11.70
2019-06-07T02:18:21.778Z,11.60
2019-06-07T02:20:46.996Z,11.60
2019-06-07T02:23:13.158Z,11.50
2019-06-07T02:25:49.593Z,11.50
2019-06-07T02:28:32.059Z,11.50
2019-06-07T02:30:44.627Z,11.30
2019-06-07T02:33:03.574Z,11.20
2019-06-07T02:35:34.748Z,11.20
2019-06-07T02:37:57.830Z,11.20
2019-06-07T02:40:24.504Z,11.00
2019-06-07T02:42:52.086Z,11.10
2019-06-07T02:45:18.454Z,11.10
2019-06-07T02:50:39.020Z,11.10
2019-06-07T02:53:05.429Z,11.00
2019-06-07T02:55:44.729Z,11.00
2019-06-07T02:57:59.670Z,11.00
2019-06-07T03:01:00.518Z,11.00
2019-06-07T03:03:14.050Z,10.90
2019-06-07T03:05:44.553Z,10.90
2019-06-07T03:08:13.794Z,11.00
2019-06-07T03:10:43.770Z,11.00
2019-06-07T03:13:13.089Z,11.00
2019-06-07T03:15:49.622Z,11.00
2019-06-07T03:18:12.845Z,11.00
2019-06-07T03:20:40.949Z,11.00
2019-06-07T03:23:07.349Z,11.10
2019-06-07T03:25:37.373Z,11.10
2019-06-07T03:28:05.308Z,11.10
2019-06-07T03:30:52.737Z,11.20
2019-06-07T03:32:59.590Z,11.30
2019-06-07T03:35:28.475Z,11.30
2019-06-07T03:37:53.862Z,11.40
2019-06-07T03:40:20.027Z,11.50
2019-06-07T03:42:46.256Z,11.60
2019-06-07T03:45:13.835Z,11.70
2019-06-07T03:47:42.648Z,11.80
2019-06-07T03:50:08.251Z,12.10
2019-06-07T03:52:36.901Z,12.20
2019-06-07T03:55:04.404Z,12.40
2019-06-07T03:58:14.951Z,12.50
2019-06-07T03:59:58.633Z,12.60
2019-06-07T04:02:25.112Z,12.70
2019-06-07T04:04:51.298Z,12.80
2019-06-07T04:07:17.452Z,13.00
2019-06-07T04:09:43.633Z,13.10
2019-06-07T04:12:09.825Z,13.40
2019-06-07T04:14:38.505Z,13.50
2019-06-07T04:17:04.081Z,13.60
2019-06-07T04:19:32.212Z,13.80
2019-06-07T04:21:58.477Z,14.00
2019-06-07T04:24:24.655Z,14.30
2019-06-07T04:26:50.849Z,14.60
2019-06-07T04:29:41.586Z,14.90
2019-06-07T04:31:45.198Z,15.20
2019-06-07T04:34:11.492Z,15.60
2019-06-07T04:36:51.934Z,15.80
2019-06-07T04:39:06.692Z,16.40
2019-06-07T04:41:36.689Z,16.70
2019-06-07T04:44:02.269Z,17.30
2019-06-07T04:46:31.406Z,17.70
2019-06-07T04:49:00.925Z,17.50
2019-06-07T04:51:30.149Z,17.40
2019-06-07T04:53:56.857Z,17.70
2019-06-07T04:56:23.062Z,17.60
2019-06-07T04:58:49.310Z,18.50
2019-06-07T05:01:26.831Z,19.30
2019-06-07T05:03:44.466Z,20.00
2019-06-07T05:06:10.902Z,20.90
2019-06-07T05:08:38.781Z,21.00
2019-06-07T05:11:05.161Z,21.10
2019-06-07T05:13:36.733Z,21.20
2019-06-07T05:15:59.826Z,20.70
2019-06-07T05:18:26.132Z,20.30
2019-06-07T05:20:53.241Z,20.70
2019-06-07T05:24:00.305Z,21.90
2019-06-07T05:25:47.661Z,21.50
2019-06-07T05:28:13.863Z,21.90
2019-06-07T05:33:15.406Z,23.20
2019-06-07T05:35:43.494Z,23.10
2019-06-07T05:38:09.892Z,23.00
2019-06-07T05:40:42.445Z,24.20
2019-06-07T05:43:10.863Z,24.40
2019-06-07T05:45:42.285Z,24.10
2019-06-07T05:48:06.782Z,24.50
2019-06-07T05:50:41.511Z,25.40
2019-06-07T05:53:01.504Z,25.80
2019-06-07T05:55:28.791Z,25.90
2019-06-07T05:57:55.256Z,26.50
2019-06-07T06:00:21.422Z,27.90
2019-06-07T06:03:04.351Z,27.50
2019-06-07T06:05:32.556Z,28.60
2019-06-07T06:07:50.450Z,28.30
2019-06-07T06:10:14.369Z,28.40
2019-06-07T06:12:45.173Z,28.50
2019-06-07T06:15:09.884Z,28.40
2019-06-07T06:17:37.832Z,28.30
2019-06-07T06:20:05.520Z,28.70
2019-06-07T06:22:31.719Z,29.20
2019-06-07T06:25:30.542Z,29.40
2019-06-07T06:28:03.429Z,30.50
2019-06-07T06:29:54.218Z,30.20
2019-06-07T06:34:52.749Z,29.60
2019-06-07T06:37:17.724Z,29.10
2019-06-07T06:39:46.613Z,30.30
2019-06-07T06:42:12.028Z,31.00
2019-06-07T06:44:40.732Z,31.30
2019-06-07T06:47:06.303Z,32.10
2019-06-07T06:49:32.470Z,33.20
2019-06-07T06:51:58.782Z,33.30
2019-06-07T06:54:40.094Z,34.10
2019-06-07T06:56:53.168Z,33.50
2019-06-07T06:59:38.133Z,34.30
2019-06-07T07:01:50.573Z,33.00
2019-06-07T07:04:15.922Z,34.50
2019-06-07T07:06:42.757Z,34.90
2019-06-07T07:09:09.033Z,34.70
2019-06-07T07:11:52.273Z,35.50
2019-06-07T07:14:03.316Z,35.30
2019-06-07T07:16:29.481Z,34.40
2019-06-07T07:18:55.713Z,33.50
2019-06-07T07:21:21.898Z,32.80
2019-06-07T07:24:14.722Z,33.30
2019-06-07T07:26:16.150Z,33.80
2019-06-07T07:28:42.993Z,35.40
2019-06-07T07:31:10.003Z,34.90
2019-06-07T07:36:19.102Z,35.60
2019-06-07T07:38:32.490Z,35.00
2019-06-07T07:41:13.951Z,34.10
2019-06-07T07:43:26.837Z,34.80
2019-06-07T07:46:01.364Z,34.90
2019-06-07T07:48:21.192Z,35.60
2019-06-07T07:50:49.783Z,36.30
2019-06-07T07:53:15.573Z,37.20
2019-06-07T07:55:41.778Z,36.20
2019-06-07T07:58:07.981Z,37.40
2019-06-07T08:00:52.587Z,35.90
2019-06-07T08:03:04.551Z,35.10
2019-06-07T08:05:42.558Z,35.40
2019-06-07T08:08:01.608Z,34.60
2019-06-07T08:10:27.232Z,35.10
2019-06-07T08:13:15.882Z,35.20
2019-06-07T08:15:21.619Z,36.20
2019-06-07T08:17:50.509Z,36.30
2019-06-07T08:20:16.361Z,36.90
2019-06-07T08:22:42.554Z,37.50
2019-06-07T08:25:10.719Z,36.80
2019-06-07T08:27:38.022Z,35.70
2019-06-07T08:30:35.473Z,37.50
2019-06-07T08:32:34.882Z,39.00
2019-06-07T08:35:06.053Z,37.70
2019-06-07T08:38:13.158Z,38.70
2019-06-07T08:39:59.745Z,38.00
2019-06-07T08:42:36.469Z,37.70
2019-06-07T08:44:54.299Z,37.70
2019-06-07T08:47:21.573Z,37.20
2019-06-07T08:49:47.764Z,37.40
2019-06-07T08:52:14.151Z,39.80
2019-06-07T08:54:40.345Z,39.60
2019-06-07T08:57:20.440Z,39.10
2019-06-07T08:59:34.590Z,39.10
2019-06-07T09:02:05.773Z,38.10
2019-06-07T09:04:29.095Z,37.60
2019-06-07T09:07:07.253Z,38.80
2019-06-07T09:09:23.491Z,39.90
2019-06-07T09:11:49.665Z,37.90
2019-06-07T09:14:15.868Z,37.50
2019-06-07T09:16:42.032Z,37.50
2019-06-07T09:19:11.030Z,39.10
2019-06-07T09:21:36.327Z,39.60
2019-06-07T09:24:08.810Z,39.20
2019-06-07T09:26:31.120Z,38.70
2019-06-07T09:28:58.543Z,38.90
2019-06-07T09:31:50.623Z,38.30
2019-06-07T09:33:54.218Z,37.60
2019-06-07T09:36:20.411Z,38.40
2019-06-07T09:38:46.803Z,38.50
2019-06-07T09:41:13.017Z,38.50
2019-06-07T09:44:05.236Z,38.20
2019-06-07T09:46:12.813Z,39.70
2019-06-07T09:51:09.866Z,39.60
2019-06-07T09:53:32.825Z,38.50
2019-06-07T09:56:03.540Z,37.40
2019-06-07T10:00:55.168Z,38.80
2019-06-07T10:03:22.782Z,40.00
2019-06-07T10:05:49.221Z,39.00
2019-06-07T10:09:01.033Z,40.40
2019-06-07T10:10:43.543Z,41.20
2019-06-07T10:13:10.323Z,39.60
2019-06-07T10:15:36.824Z,38.40
2019-06-07T10:18:03.215Z,38.60
2019-06-07T10:20:29.378Z,39.40
2019-06-07T10:22:56.849Z,40.50
2019-06-07T10:25:23.024Z,42.60
2019-06-07T10:27:49.187Z,43.50
2019-06-07T10:30:15.482Z,41.90
2019-06-07T10:32:41.645Z,41.70
2019-06-07T10:35:10.188Z,42.40
2019-06-07T10:37:36.569Z,41.00
2019-06-07T10:40:06.782Z,40.40
2019-06-07T10:42:33.153Z,39.80
2019-06-07T10:44:59.342Z,39.70
2019-06-07T10:47:25.533Z,40.40
2019-06-07T10:49:51.808Z,39.40
2019-06-07T10:52:17.975Z,40.90
2019-06-07T10:54:45.294Z,40.70
2019-06-07T10:57:15.899Z,40.80
2019-06-07T10:59:40.664Z,40.30
2019-06-07T11:02:07.958Z,41.30
2019-06-07T11:04:34.208Z,39.90
2019-06-07T11:07:00.493Z,38.80
2019-06-07T11:09:26.997Z,39.50
2019-06-07T11:11:53.148Z,40.80
2019-06-07T11:14:19.335Z,40.90
2019-06-07T11:16:45.489Z,39.70
2019-06-07T11:19:14.442Z,39.90
2019-06-07T11:21:40.855Z,41.70
2019-06-07T11:24:08.074Z,42.70
2019-06-07T11:26:34.314Z,42.40
2019-06-07T11:29:00.494Z,42.80
2019-06-07T11:31:26.672Z,41.50
2019-06-07T11:33:52.921Z,40.00
2019-06-07T11:36:19.089Z,40.20
2019-06-07T11:38:45.396Z,39.20
2019-06-07T11:41:11.638Z,38.50
2019-06-07T11:43:37.839Z,39.50
2019-06-07T11:46:04.127Z,40.60
2019-06-07T11:48:30.366Z,39.30
2019-06-07T11:50:57.237Z,39.10
2019-06-07T11:53:23.753Z,38.60
2019-06-07T11:55:49.950Z,35.40
2019-06-07T11:58:19.742Z,34.10
2019-06-07T12:00:44.388Z,32.60
2019-06-07T12:03:11.579Z,31.50
2019-06-07T12:05:37.940Z,31.30
2019-06-07T12:08:04.209Z,30.40
2019-06-07T12:10:41.748Z,29.50
2019-06-07T12:12:58.533Z,28.70
2019-06-07T12:15:24.801Z,28.70
2019-06-07T12:17:51.029Z,28.40
2019-06-07T12:20:18.861Z,28.00
2019-06-07T12:22:45.567Z,27.90
2019-06-07T12:25:12.546Z,27.70
2019-06-07T12:27:39.817Z,27.60
2019-06-07T12:30:11.163Z,27.70
2019-06-07T12:32:34.886Z,27.50
2019-06-07T12:35:01.077Z,27.30
2019-06-07T12:37:42.679Z,27.40
2019-06-07T12:39:56.451Z,27.60
2019-06-07T12:42:22.757Z,27.80
2019-06-07T12:44:49.095Z,27.90
2019-06-07T12:47:15.276Z,27.50
2019-06-07T12:49:41.602Z,27.20
2019-06-07T12:52:07.788Z,27.30
2019-06-07T12:54:33.970Z,27.10
2019-06-07T12:57:00.200Z,27.40
2019-06-07T12:59:26.386Z,27.20
2019-06-07T13:01:52.727Z,27.20
2019-06-07T13:04:18.923Z,27.20
2019-06-07T13:06:45.333Z,27.00
2019-06-07T13:09:11.516Z,27.00
2019-06-07T13:11:37.856Z,27.20
2019-06-07T13:14:04.149Z,27.20
2019-06-07T13:16:30.316Z,27.00
2019-06-07T13:18:56.851Z,27.10
2019-06-07T13:21:24.498Z,27.00
2019-06-07T13:23:51.078Z,26.90
2019-06-07T13:26:18.500Z,27.00
2019-06-07T13:28:44.892Z,27.00
2019-06-07T13:31:11.079Z,27.00
2019-06-07T13:33:38.861Z,26.90
2019-06-07T13:36:05.349Z,26.90
2019-06-07T13:38:31.622Z,26.90
2019-06-07T13:40:57.847Z,26.90
2019-06-07T13:43:25.591Z,26.70
2019-06-07T13:45:52.134Z,26.90
2019-06-07T13:48:19.210Z,27.00
2019-06-07T13:50:45.700Z,27.10
2019-06-07T13:53:11.879Z,27.00
2019-06-07T13:55:38.110Z,26.80
2019-06-07T13:58:04.363Z,26.90
2019-06-07T14:00:31.685Z,26.90
2019-06-07T14:02:57.954Z,27.00
2019-06-07T14:05:25.019Z,27.10
2019-06-07T14:07:51.708Z,27.00
2019-06-07T14:10:19.277Z,27.00
2019-06-07T14:12:45.668Z,27.00
2019-06-07T14:15:12.453Z,26.90
2019-06-07T14:17:38.666Z,26.90
2019-06-07T14:20:09.420Z,26.80
2019-06-07T14:22:36.646Z,26.70
2019-06-07T14:25:08.264Z,26.80
2019-06-07T14:27:34.456Z,27.00
2019-06-07T14:30:00.608Z,27.10
2019-06-07T14:32:26.896Z,27.10
2019-06-07T14:34:53.067Z,27.10
2019-06-07T14:37:19.432Z,27.30
2019-06-07T14:39:45.603Z,27.30
2019-06-07T14:42:11.901Z,27.30
2019-06-07T14:44:38.128Z,27.20
2019-06-07T14:47:04.490Z,27.30
2019-06-07T14:49:30.658Z,27.30
2019-06-07T14:51:57.942Z,27.10
2019-06-07T14:54:24.577Z,27.10
2019-06-07T14:56:50.892Z,27.00
2019-06-07T14:59:17.072Z,27.00
2019-06-07T15:01:43.259Z,27.00
2019-06-07T15:04:09.655Z,27.10
2019-06-07T15:06:35.838Z,27.10
2019-06-07T15:09:04.872Z,27.00
2019-06-07T15:11:32.998Z,27.00
2019-06-07T15:13:59.410Z,27.10
2019-06-07T15:16:25.607Z,27.20
2019-06-07T15:18:51.798Z,27.10
2019-06-07T15:21:17.948Z,27.10
2019-06-07T15:23:44.250Z,27.20
2019-06-07T15:26:30.294Z,27.10
2019-06-07T15:28:56.495Z,27.10
2019-06-07T15:31:22.648Z,27.00
2019-06-07T15:33:48.907Z,27.00
2019-06-07T15:36:15.064Z,27.00
2019-06-07T15:38:41.366Z,27.00
2019-06-07T15:41:07.695Z,26.90
2019-06-07T15:43:35.084Z,26.80
2019-06-07T15:46:01.529Z,26.70
2019-06-07T15:48:27.722Z,26.70
2019-06-07T15:50:53.976Z,26.70
2019-06-07T15:53:20.166Z,26.80
2019-06-07T15:55:46.338Z,26.80
2019-06-07T15:58:12.709Z,26.70
2019-06-07T16:00:40.596Z,26.80
2019-06-07T16:03:07.004Z,26.80
2019-06-07T16:05:34.181Z,26.70
2019-06-07T16:08:00.625Z,26.70
2019-06-07T16:10:26.808Z,26.70
2019-06-07T16:13:00.041Z,26.80
2019-06-07T16:15:21.607Z,26.80
2019-06-07T16:17:47.778Z,26.80
2019-06-07T16:20:14.368Z,26.70
2019-06-07T16:22:41.881Z,26.70
2019-06-07T16:25:09.138Z,26.70
2019-06-07T16:27:36.754Z,26.70
2019-06-07T16:30:11.962Z,26.70
2019-06-07T16:32:39.292Z,26.60
2019-06-07T16:35:06.793Z,26.70
2019-06-07T16:37:33.004Z,26.60
2019-06-07T16:39:59.295Z,26.70
2019-06-07T16:42:25.547Z,26.70
2019-06-07T16:44:51.788Z,26.60
2019-06-07T16:47:18.026Z,26.50
2019-06-07T16:49:45.099Z,26.50
2019-06-07T16:52:12.349Z,26.50
2019-06-07T16:54:39.314Z,26.40
2019-06-07T16:57:05.758Z,26.40
2019-06-07T16:59:31.967Z,26.40
2019-06-07T17:01:58.143Z,26.40
2019-06-07T17:04:24.395Z,26.30
2019-06-07T17:06:50.653Z,26.30
2019-06-07T17:09:16.995Z,26.20
2019-06-07T17:11:44.319Z,26.30
2019-06-07T17:14:11.288Z,26.30
2019-06-07T17:16:38.803Z,26.30
2019-06-07T17:19:05.147Z,26.20
2019-06-07T17:21:31.312Z,26.20
2019-06-07T17:23:57.501Z,26.10
2019-06-07T17:26:23.710Z,26.10
2019-06-07T17:28:50.139Z,26.10
2019-06-07T17:31:16.480Z,26.10
2019-06-07T17:33:43.855Z,26.10
2019-06-07T17:36:10.254Z,26.00
2019-06-07T17:38:36.574Z,25.80
2019-06-07T17:41:02.829Z,25.80
2019-06-07T17:43:29.110Z,25.70
2019-06-07T17:45:55.394Z,25.70
2019-06-07T17:48:23.965Z,25.70
2019-06-07T17:50:50.006Z,25.70
2019-06-07T17:53:16.278Z,25.70
2019-06-07T17:55:42.473Z,25.60
2019-06-07T17:58:08.632Z,25.60
2019-06-07T18:00:46.523Z,25.50
2019-06-07T18:03:34.672Z,25.50
2019-06-07T18:06:01.485Z,25.50
2019-06-07T18:08:27.961Z,25.50
2019-06-07T18:10:54.318Z,25.50
2019-06-07T18:13:21.681Z,25.50
2019-06-07T18:15:52.974Z,25.50
2019-06-07T18:18:16.561Z,25.40
2019-06-07T18:20:42.996Z,25.30
2019-06-07T18:23:09.780Z,25.30
2019-06-07T18:25:36.316Z,25.30
2019-06-07T18:28:03.448Z,25.30
2019-06-07T18:30:29.610Z,25.10
2019-06-07T18:32:55.788Z,25.10
2019-06-07T18:35:21.963Z,24.90
2019-06-07T18:37:48.951Z,24.80
2019-06-07T18:40:15.421Z,24.70
2019-06-07T18:42:41.600Z,24.60
2019-06-07T18:45:08.693Z,24.50
2019-06-07T18:47:35.120Z,24.40
2019-06-07T18:50:01.300Z,24.40
2019-06-07T18:52:32.103Z,24.40
2019-06-07T18:54:59.659Z,24.30
2019-06-07T18:57:25.964Z,24.30
2019-06-07T18:59:52.350Z,24.20
2019-06-07T19:02:18.880Z,24.10
2019-06-07T19:04:45.049Z,24.10
2019-06-07T19:07:11.290Z,24.00
2019-06-07T19:09:37.464Z,23.90
2019-06-07T19:12:03.652Z,23.70
2019-06-07T19:14:37.019Z,23.60
2019-06-07T19:16:58.023Z,23.50
2019-06-07T19:19:24.213Z,23.30
2019-06-07T19:21:51.992Z,23.20
2019-06-07T19:24:38.186Z,23.20
2019-06-07T19:27:04.426Z,23.00
2019-06-07T19:29:31.672Z,22.80
2019-06-07T19:31:58.868Z,22.70
2019-06-07T19:34:25.328Z,22.70
2019-06-07T19:36:51.561Z,22.60
2019-06-07T19:39:17.907Z,22.50
2019-06-07T19:41:44.155Z,22.40
2019-06-07T19:44:10.336Z,22.30
2019-06-07T19:46:36.620Z,22.20
2019-06-07T19:49:03.137Z,22.30
2019-06-07T19:51:29.590Z,22.30
2019-06-07T19:53:57.020Z,22.20
2019-06-07T19:56:23.368Z,22.00
2019-06-07T19:58:49.538Z,21.90
2019-06-07T20:01:15.727Z,21.80
2019-06-07T20:03:41.882Z,21.80
2019-06-07T20:06:08.079Z,21.60
2019-06-07T20:08:34.269Z,21.60
2019-06-07T20:11:00.607Z,21.50
2019-06-07T20:13:26.924Z,21.40
2019-06-07T20:15:53.093Z,21.30
2019-06-07T20:18:19.277Z,21.30
2019-06-07T20:20:46.050Z,21.20
2019-06-07T20:23:12.232Z,21.20
2019-06-07T20:25:38.407Z,21.10
2019-06-07T20:28:05.608Z,21.00
2019-06-07T20:30:31.842Z,21.00
2019-06-07T20:32:58.021Z,20.90
2019-06-07T20:35:24.173Z,20.90
2019-06-07T20:37:50.386Z,21.10
2019-06-07T20:40:24.395Z,21.10
2019-06-07T20:42:46.752Z,21.30
2019-06-07T20:45:13.739Z,21.40
2019-06-07T20:47:39.927Z,21.30
2019-06-07T20:50:08.465Z,21.30
2019-06-07T20:52:34.986Z,21.20
2019-06-07T20:55:02.695Z,21.10
2019-06-07T20:57:29.470Z,21.10
2019-06-07T20:59:55.751Z,21.10
2019-06-07T21:02:22.147Z,21.10
2019-06-07T21:04:48.378Z,21.10
2019-06-07T21:07:14.665Z,21.10
2019-06-07T21:09:40.963Z,21.30
2019-06-07T21:12:07.946Z,21.40
2019-06-07T21:14:34.309Z,21.30
2019-06-07T21:17:00.589Z,21.10
2019-06-07T21:19:26.777Z,20.70
2019-06-07T21:21:52.969Z,20.20
2019-06-07T21:24:19.148Z,19.90
2019-06-07T21:26:45.415Z,19.30
2019-06-07T21:29:12.079Z,18.80
2019-06-07T21:31:38.369Z,18.40
2019-06-07T21:34:07.653Z,18.00
2019-06-07T21:36:32.667Z,17.70
2019-06-07T21:38:58.859Z,17.40
2019-06-07T21:41:25.024Z,17.20
2019-06-07T21:43:51.228Z,17.00
2019-06-07T21:46:20.523Z,16.90
2019-06-07T21:48:45.518Z,16.80
2019-06-07T21:51:12.712Z,16.70
2019-06-07T21:53:39.072Z,16.70
2019-06-07T21:56:05.283Z,16.60
2019-06-07T21:58:31.444Z,16.40
2019-06-07T22:01:01.436Z,16.30
2019-06-07T22:03:27.910Z,16.20
2019-06-07T22:05:54.101Z,16.00
2019-06-07T22:08:20.258Z,16.00
2019-06-07T22:10:46.465Z,15.90
2019-06-07T22:13:12.625Z,15.80
2019-06-07T22:15:38.879Z,15.60
2019-06-07T22:18:06.960Z,15.60
2019-06-07T22:20:33.428Z,15.50
2019-06-07T22:22:59.589Z,15.40
2019-06-07T22:25:25.773Z,15.40
2019-06-07T22:27:51.957Z,15.30
2019-06-07T22:30:18.841Z,15.30
2019-06-07T22:32:45.122Z,15.30
2019-06-07T22:35:12.916Z,15.20
2019-06-07T22:37:39.168Z,15.30
2019-06-07T22:40:06.247Z,15.20
2019-06-07T22:42:32.641Z,15.30
2019-06-07T22:44:59.870Z,15.20
2019-06-07T22:47:26.139Z,15.20
2019-06-07T22:49:52.328Z,15.20
2019-06-07T22:52:18.506Z,15.20
2019-06-07T22:54:44.666Z,15.10
2019-06-07T22:57:16.630Z,15.10
2019-06-07T22:59:43.051Z,15.10
2019-06-07T23:02:10.354Z,15.10
2019-06-07T23:04:37.262Z,15.10
2019-06-07T23:07:03.512Z,15.10
2019-06-07T23:09:29.682Z,15.00
2019-06-07T23:11:55.876Z,15.00
2019-06-07T23:14:25.002Z,15.00
2019-06-07T23:16:55.565Z,14.90
2019-06-07T23:19:18.346Z,14.90
2019-06-07T23:21:44.708Z,14.90
2019-06-07T23:24:11.897Z,14.90
2019-06-07T23:26:38.263Z,14.90
2019-06-07T23:29:04.544Z,14.90
2019-06-07T23:31:30.805Z,14.80
2019-06-07T23:33:56.977Z,14.80
2019-06-07T23:36:23.148Z,14.80
2019-06-07T23:38:49.347Z,14.80
2019-06-07T23:41:15.591Z,14.80
2019-06-07T23:43:41.897Z,14.80
2019-06-07T23:46:08.120Z,14.80
2019-06-07T23:48:34.309Z,14.70
2019-06-07T23:51:00.494Z,14.70
2019-06-07T23:53:46.575Z,14.60
2019-06-07T23:56:13.794Z,14.60
2019-06-07T23:58:40.137Z,14.60
